Time;durP1;ratioP1;P1;durP2;ratioP2;P2;SDS_P1;SDS_P2;PMS_P1;PMS_P2;Temp;Humidity;BMP_temperature;BMP_pressure;BME280_temperature;BME280_humidity;BME280_pressure;Samples;Min_cycle;Max_cycle;Signal;HPM_P1;HPM_P2
2024/04/16 00:00:13;;;;;;;;;;;;;;;;;;5445480;26;19925;-57
2024/04/16 00:02:39;;;;;;;;;;;;;;;;;;5435095;26;19936;-55
2024/04/16 00:05:05;;;;;;;;;;;;;;;;;;5428259;26;19943;-55
2024/04/16 00:07:31;;;;;;;;;;;;;;;;;;5433075;26;20001;-55
2024/04/16 00:09:57;;;;;;;;;;;;;;;;;;5434905;26;20681;-55
2024/04/16 00:12:23;;;;;;;;;;;;;;;;;;5426110;26;19925;-57
2024/04/16 00:14:49;;;;;;;;;;;;;;;;;;5415498;26;19986;-57
2024/04/16 00:17:15;;;;;;;;;;;;;;;;;;5439506;26;19932;-57
2024/04/16 00:19:41;;;;;;;;;;;;;;;;;;5427627;26;20256;-57
2024/04/16 00:22:07;;;;;;;;;;;;;;;;;;5432488;26;19928;-57
2024/04/16 00:24:33;;;;;;;;;;;;;;;;;;5439474;26;19932;-57
2024/04/16 00:26:59;;;;;;;;;;;;;;;;;;5427117;26;20278;-57
2024/04/16 00:29:25;;;;;;;;;;;;;;;;;;5418222;26;19932;-57
2024/04/16 00:31:51;;;;;;;;;;;;;;;;;;5425752;26;20259;-58
2024/04/16 00:34:17;;;;;;;;;;;;;;;;;;5429704;26;20244;-58
2024/04/16 00:36:43;;;;;;;;;;;;;;;;;;5432001;26;19932;-57
2024/04/16 00:39:12;;;;;;;;;;;;;;;;;;5446793;26;20001;-57
2024/04/16 00:41:37;;;;;;;;;;;;;;;;;;5420283;26;19931;-57
2024/04/16 00:44:03;;;;;;;;;;;;;;;;;;5423949;26;19936;-57
2024/04/16 00:46:29;;;;;;;;;;;;;;;;;;5442758;26;20288;-58
2024/04/16 00:48:55;;;;;;;;;;;;;;;;;;5418049;26;19940;-57
2024/04/16 00:51:21;;;;;;;;;;;;;;;;;;5423360;26;19967;-57
2024/04/16 00:53:47;;;;;;;;;;;;;;;;;;5427731;26;20017;-55
2024/04/16 00:56:13;;;;;;;;;;;;;;;;;;5417182;26;19925;-57
2024/04/16 00:58:40;;;;;;;;;;;;;;;;;;5421899;26;19925;-57
2024/04/16 01:01:06;;;;;;;;;;;;;;;;;;5432290;26;19925;-57
2024/04/16 01:03:32;;;;;;;;;;;;;;;;;;5426338;26;20260;-58
2024/04/16 01:05:57;;;;;;;;;;;;;;;;;;5435079;26;19924;-56
2024/04/16 01:08:23;;;;;;;;;;;;;;;;;;5420328;26;19925;-57
2024/04/16 01:10:50;;;;;;;;;;;;;;;;;;5421565;26;20335;-57
2024/04/16 01:13:16;;;;;;;;;;;;;;;;;;5423791;26;19960;-58
2024/04/16 01:15:41;;;;;;;;;;;;;;;;;;5438150;26;19933;-57
2024/04/16 01:18:07;;;;;;;;;;;;;;;;;;5440760;26;19932;-57
2024/04/16 01:20:33;;;;;;;;;;;;;;;;;;5424004;26;19925;-57
2024/04/16 01:22:59;;;;;;;;;;;;;;;;;;5429744;26;19931;-58
2024/04/16 01:25:25;;;;;;;;;;;;;;;;;;5419781;26;19967;-58
2024/04/16 01:27:51;;;;;;;;;;;;;;;;;;5429785;26;19944;-58
2024/04/16 01:30:17;;;;;;;;;;;;;;;;;;5435230;26;20360;-58
2024/04/16 01:32:43;;;;;;;;;;;;;;;;;;5427772;26;19924;-58
2024/04/16 01:35:10;;;;;;;;;;;;;;;;;;5420604;26;19925;-58
2024/04/16 01:37:36;;;;;;;;;;;;;;;;;;5430855;26;19925;-58
2024/04/16 01:40:02;;;;;;;;;;;;;;;;;;5441536;26;19932;-58
2024/04/16 01:42:28;;;;;;;;;;;;;;;;;;5420150;26;20366;-57
2024/04/16 01:44:56;;;;;;;;;;;;;;;;;;5421866;26;19936;-57
2024/04/16 01:47:22;;;;;;;;;;;;;;;;;;5421628;26;19931;-58
2024/04/16 01:49:48;;;;;;;;;;;;;;;;;;5427931;26;19924;-57
2024/04/16 01:52:14;;;;;;;;;;;;;;;;;;5418309;26;19925;-55
2024/04/16 01:54:40;;;;;;;;;;;;;;;;;;5432821;26;19925;-58
2024/04/16 01:57:06;;;;;;;;;;;;;;;;;;5431724;26;19925;-58
2024/04/16 01:59:32;;;;;;;;;;;;;;;;;;5418406;26;20348;-57
2024/04/16 02:01:58;;;;;;;;;;;;;;;;;;5424356;26;19925;-57
2024/04/16 02:04:24;;;;;;;;;;;;;;;;;;5423066;26;19931;-57
2024/04/16 02:06:50;;;;;;;;;;;;;;;;;;5423994;26;20000;-57
2024/04/16 02:09:16;;;;;;;;;;;;;;;;;;5414676;26;19937;-57
2024/04/16 02:11:43;;;;;;;;;;;;;;;;;;5429210;26;19932;-58
2024/04/16 02:14:09;;;;;;;;;;;;;;;;;;5422831;26;20272;-57
2024/04/16 02:16:35;;;;;;;;;;;;;;;;;;5426692;26;19925;-57
2024/04/16 02:19:01;;;;;;;;;;;;;;;;;;5427888;26;19936;-58
2024/04/16 02:21:27;;;;;;;;;;;;;;;;;;5425848;26;19925;-58
2024/04/16 02:23:52;;;;;;;;;;;;;;;;;;5419212;26;20249;-55
2024/04/16 02:26:18;;;;;;;;;;;;;;;;;;5432100;26;20372;-55
2024/04/16 02:28:44;;;;;;;;;;;;;;;;;;5440473;26;19928;-56
2024/04/16 02:31:10;;;;;;;;;;;;;;;;;;5419744;26;19924;-55
2024/04/16 02:33:36;;;;;;;;;;;;;;;;;;5427564;26;19955;-56
2024/04/16 02:36:02;;;;;;;;;;;;;;;;;;5415608;26;19924;-56
2024/04/16 02:38:28;;;;;;;;;;;;;;;;;;5422371;26;19925;-52
2024/04/16 02:40:54;;;;;;;;;;;;;;;;;;5424097;26;19931;-52
2024/04/16 02:43:20;;;;;;;;;;;;;;;;;;5420587;26;19933;-56
2024/04/16 02:45:47;;;;;;;;;;;;;;;;;;5427121;26;19928;-55
2024/04/16 02:48:12;;;;;;;;;;;;;;;;;;5444470;26;19932;-56
2024/04/16 02:50:38;;;;;;;;;;;;;;;;;;5436302;26;19925;-55
2024/04/16 02:53:04;;;;;;;;;;;;;;;;;;5444915;26;20252;-55
2024/04/16 02:55:30;;;;;;;;;;;;;;;;;;5427275;26;19932;-55
2024/04/16 02:57:56;;;;;;;;;;;;;;;;;;5430601;26;19932;-56
2024/04/16 03:00:22;;;;;;;;;;;;;;;;;;5427168;26;19963;-56
2024/04/16 03:02:48;;;;;;;;;;;;;;;;;;5434366;26;19940;-55
2024/04/16 03:05:14;;;;;;;;;;;;;;;;;;5426195;26;20405;-55
2024/04/16 03:07:40;;;;;;;;;;;;;;;;;;5439280;26;20494;-56
2024/04/16 03:10:06;;;;;;;;;;;;;;;;;;5422409;26;20014;-56
2024/04/16 03:12:32;;;;;;;;;;;;;;;;;;5420279;26;19925;-55
2024/04/16 03:14:58;;;;;;;;;;;;;;;;;;5435238;26;20279;-56
2024/04/16 03:17:24;;;;;;;;;;;;;;;;;;5434681;26;19931;-55
2024/04/16 03:19:50;;;;;;;;;;;;;;;;;;5422311;26;19931;-55
2024/04/16 03:22:16;;;;;;;;;;;;;;;;;;5427584;26;19932;-56
2024/04/16 03:24:42;;;;;;;;;;;;;;;;;;5437571;26;19925;-55
2024/04/16 03:27:08;;;;;;;;;;;;;;;;;;5429210;26;19943;-54
2024/04/16 03:29:34;;;;;;;;;;;;;;;;;;5425452;26;20384;-55
2024/04/16 03:32:00;;;;;;;;;;;;;;;;;;5434162;26;19932;-54
2024/04/16 03:34:26;;;;;;;;;;;;;;;;;;5434217;26;19933;-54
2024/04/16 03:36:52;;;;;;;;;;;;;;;;;;5419290;26;19945;-54
2024/04/16 03:39:17;;;;;;;;;;;;;;;;;;5420948;26;19936;-54
2024/04/16 03:41:43;;;;;;;;;;;;;;;;;;5428124;26;19936;-54
2024/04/16 03:44:09;;;;;;;;;;;;;;;;;;5413730;26;19932;-53
2024/04/16 03:46:35;;;;;;;;;;;;;;;;;;5433427;26;19925;-54
2024/04/16 03:49:01;;;;;;;;;;;;;;;;;;5419243;26;20253;-54
2024/04/16 03:51:27;;;;;;;;;;;;;;;;;;5425864;26;20487;-54
2024/04/16 03:53:53;;;;;;;;;;;;;;;;;;5429648;26;19940;-54
2024/04/16 03:56:19;;;;;;;;;;;;;;;;;;5419591;26;19940;-54
2024/04/16 03:59:04;;;;;;;;;;;;;;;;;;5431026;26;19924;-55
2024/04/16 04:01:30;;;;;;;;;;;;;;;;;;5426441;26;20252;-54
2024/04/16 04:03:56;;;;;;;;;;;;;;;;;;5429954;26;19924;-54
2024/04/16 04:06:22;;;;;;;;;;;;;;;;;;5429142;26;19924;-53
2024/04/16 04:08:48;;;;;;;;;;;;;;;;;;5428255;26;20398;-54
2024/04/16 04:11:14;;;;;;;;;;;;;;;;;;5435196;26;19931;-54
2024/04/16 04:13:40;;;;;;;;;;;;;;;;;;5425379;26;19939;-54
2024/04/16 04:16:06;;;;;;;;;;;;;;;;;;5413943;26;19925;-54
2024/04/16 04:18:32;;;;;;;;;;;;;;;;;;5424839;26;19929;-53
2024/04/16 04:20:58;;;;;;;;;;;;;;;;;;5432905;26;19952;-55
2024/04/16 04:23:24;;;;;;;;;;;;;;;;;;5436742;26;19940;-55
2024/04/16 04:25:50;;;;;;;;;;;;;;;;;;5430376;26;19932;-55
2024/04/16 04:28:16;;;;;;;;;;;;;;;;;;5438138;26;20010;-54
2024/04/16 04:30:42;;;;;;;;;;;;;;;;;;5429254;26;19924;-55
2024/04/16 04:33:10;;;;;;;;;;;;;;;;;;5416390;26;20486;-55
2024/04/16 04:35:36;;;;;;;;;;;;;;;;;;5419148;26;19939;-55
2024/04/16 04:38:02;;;;;;;;;;;;;;;;;;5420276;26;19925;-55
2024/04/16 04:40:28;;;;;;;;;;;;;;;;;;5419481;26;19933;-55
2024/04/16 04:42:55;;;;;;;;;;;;;;;;;;5424118;26;20002;-55
2024/04/16 04:45:21;;;;;;;;;;;;;;;;;;5420843;26;19932;-56
2024/04/16 04:47:47;;;;;;;;;;;;;;;;;;5425357;26;19933;-55
2024/04/16 04:50:12;;;;;;;;;;;;;;;;;;5422760;26;19924;-56
2024/04/16 04:52:38;;;;;;;;;;;;;;;;;;5423029;26;19999;-55
2024/04/16 04:55:05;;;;;;;;;;;;;;;;;;5427407;26;19932;-57
2024/04/16 04:57:31;;;;;;;;;;;;;;;;;;5428526;26;19948;-56
2024/04/16 04:59:57;;;;;;;;;;;;;;;;;;5430420;26;19986;-56
2024/04/16 05:02:23;;;;;;;;;;;;;;;;;;5423655;26;19963;-56
2024/04/16 05:04:49;;;;;;;;;;;;;;;;;;5431425;26;19933;-56
2024/04/16 05:07:15;;;;;;;;;;;;;;;;;;5422015;26;19940;-56
2024/04/16 05:09:41;;;;;;;;;;;;;;;;;;5439178;26;20334;-56
2024/04/16 05:12:06;;;;;;;;;;;;;;;;;;5429364;26;20277;-56
2024/04/16 05:14:32;;;;;;;;;;;;;;;;;;5433252;26;20466;-56
2024/04/16 05:16:58;;;;;;;;;;;;;;;;;;5427781;26;20361;-56
2024/04/16 05:19:24;;;;;;;;;;;;;;;;;;5430358;26;20716;-56
2024/04/16 05:21:50;;;;;;;;;;;;;;;;;;5434726;26;20365;-57
2024/04/16 05:24:16;;;;;;;;;;;;;;;;;;5418313;26;19935;-56
2024/04/16 05:26:44;;;;;;;;;;;;;;;;;;5444479;26;20001;-56
2024/04/16 05:29:10;;;;;;;;;;;;;;;;;;5442399;26;19932;-56
2024/04/16 05:31:35;;;;;;;;;;;;;;;;;;5415821;26;19925;-56
2024/04/16 05:34:01;;;;;;;;;;;;;;;;;;5416626;26;19994;-56
2024/04/16 05:36:27;;;;;;;;;;;;;;;;;;5414715;26;20319;-55
2024/04/16 05:38:53;;;;;;;;;;;;;;;;;;5433943;26;20285;-56
2024/04/16 05:41:19;;;;;;;;;;;;;;;;;;5443870;26;19925;-56
2024/04/16 05:43:46;;;;;;;;;;;;;;;;;;5450473;26;19924;-56
2024/04/16 05:46:12;;;;;;;;;;;;;;;;;;5427212;26;20341;-56
2024/04/16 05:48:39;;;;;;;;;;;;;;;;;;5447143;26;19932;-56
2024/04/16 05:51:05;;;;;;;;;;;;;;;;;;5450489;26;19955;-56
2024/04/16 05:53:31;;;;;;;;;;;;;;;;;;5450492;26;20292;-54
2024/04/16 05:55:56;;;;;;;;;;;;;;;;;;5449608;26;20377;-54
2024/04/16 05:58:24;;;;;;;;;;;;;;;;;;5447126;26;20326;-53
2024/04/16 06:00:50;;;;;;;;;;;;;;;;;;5437180;26;19956;-54
2024/04/16 06:03:16;;;;;;;;;;;;;;;;;;5450191;26;19925;-54
2024/04/16 06:05:42;;;;;;;;;;;;;;;;;;5450493;26;19985;-55
2024/04/16 06:08:08;;;;;;;;;;;;;;;;;;5450335;26;19924;-55
2024/04/16 06:10:34;;;;;;;;;;;;;;;;;;5449233;26;19943;-55
2024/04/16 06:13:00;;;;;;;;;;;;;;;;;;5449014;26;19955;-55
2024/04/16 06:15:26;;;;;;;;;;;;;;;;;;5448394;26;19924;-54
2024/04/16 06:17:52;;;;;;;;;;;;;;;;;;5449968;26;19932;-54
2024/04/16 06:20:18;;;;;;;;;;;;;;;;;;5449837;26;19924;-55
2024/04/16 06:22:44;;;;;;;;;;;;;;;;;;5449441;26;19925;-54
2024/04/16 06:25:10;;;;;;;;;;;;;;;;;;5448889;26;19993;-56
2024/04/16 06:27:36;;;;;;;;;;;;;;;;;;5447941;26;20267;-56
2024/04/16 06:30:02;;;;;;;;;;;;;;;;;;5448339;26;19925;-55
2024/04/16 06:32:28;;;;;;;;;;;;;;;;;;5444682;26;19924;-56
2024/04/16 06:34:54;;;;;;;;;;;;;;;;;;5423715;26;20349;-56
2024/04/16 06:37:20;;;;;;;;;;;;;;;;;;5426980;26;19925;-56
2024/04/16 06:39:46;;;;;;;;;;;;;;;;;;5448736;26;19985;-55
2024/04/16 06:42:11;;;;;;;;;;;;;;;;;;5424498;26;19938;-56
2024/04/16 06:44:38;;;;;;;;;;;;;;;;;;5445105;26;19993;-56
2024/04/16 06:47:04;;;;;;;;;;;;;;;;;;5422391;26;20000;-56
2024/04/16 06:49:29;;;;;;;;;;;;;;;;;;5449926;26;20334;-56
2024/04/16 06:51:55;;;;;;;;;;;;;;;;;;5448819;26;19931;-56
2024/04/16 06:54:21;;;;;;;;;;;;;;;;;;5445373;26;19925;-56
2024/04/16 06:56:47;;;;;;;;;;;;;;;;;;5447654;26;20001;-56
2024/04/16 06:59:14;;;;;;;;;;;;;;;;;;5449624;26;19932;-56
2024/04/16 07:01:40;;;;;;;;;;;;;;;;;;5447081;26;19931;-56
2024/04/16 07:04:06;;;;;;;;;;;;;;;;;;5449411;26;19924;-56
2024/04/16 07:06:32;;;;;;;;;;;;;;;;;;5447956;26;20375;-54
2024/04/16 07:08:58;;;;;;;;;;;;;;;;;;5449275;26;19966;-54
2024/04/16 07:11:23;;;;;;;;;;;;;;;;;;5412051;26;20361;-54
2024/04/16 07:13:49;;;;;;;;;;;;;;;;;;5448231;26;19924;-53
2024/04/16 07:16:15;;;;;;;;;;;;;;;;;;5439077;26;19929;-55
2024/04/16 07:18:41;;;;;;;;;;;;;;;;;;5418623;26;19925;-54
2024/04/16 07:21:07;;;;;;;;;;;;;;;;;;5412727;26;19933;-54
2024/04/16 07:23:34;;;;;;;;;;;;;;;;;;5444345;26;19924;-54
2024/04/16 07:25:59;;;;;;;;;;;;;;;;;;5447990;26;20281;-54
2024/04/16 07:28:25;;;;;;;;;;;;;;;;;;5448081;26;19931;-54
2024/04/16 07:30:51;;;;;;;;;;;;;;;;;;5447442;26;20313;-54
2024/04/16 07:33:17;;;;;;;;;;;;;;;;;;5448471;26;19947;-54
2024/04/16 07:35:43;;;;;;;;;;;;;;;;;;5448649;26;20260;-55
2024/04/16 07:38:11;;;;;;;;;;;;;;;;;;5448810;26;20252;-55
2024/04/16 07:40:37;;;;;;;;;;;;;;;;;;5447728;26;20797;-55
2024/04/16 07:43:03;;;;;;;;;;;;;;;;;;5447915;26;19932;-54
2024/04/16 07:45:29;;;;;;;;;;;;;;;;;;5445745;26;19931;-54
2024/04/16 07:47:55;;;;;;;;;;;;;;;;;;5447945;26;19925;-54
2024/04/16 07:50:21;;;;;;;;;;;;;;;;;;5448186;26;19943;-54
2024/04/16 07:52:47;;;;;;;;;;;;;;;;;;5448171;26;19924;-54
2024/04/16 07:55:13;;;;;;;;;;;;;;;;;;5446757;26;20443;-55
2024/04/16 07:57:39;;;;;;;;;;;;;;;;;;5447697;26;20373;-54
2024/04/16 08:00:05;;;;;;;;;;;;;;;;;;5448432;26;20360;-55
2024/04/16 08:02:31;;;;;;;;;;;;;;;;;;5442489;26;20350;-54
2024/04/16 08:04:57;;;;;;;;;;;;;;;;;;5412329;26;19925;-54
2024/04/16 08:07:23;;;;;;;;;;;;;;;;;;5423006;26;19924;-54
2024/04/16 08:09:51;;;;;;;;;;;;;;;;;;5431903;26;19932;-54
2024/04/16 08:12:16;;;;;;;;;;;;;;;;;;5446933;26;20317;-54
2024/04/16 08:14:42;;;;;;;;;;;;;;;;;;5447685;26;19932;-54
2024/04/16 08:17:08;;;;;;;;;;;;;;;;;;5433956;26;19936;-55
2024/04/16 08:19:34;;;;;;;;;;;;;;;;;;5451138;26;19924;-54
2024/04/16 08:22:00;;;;;;;;;;;;;;;;;;5450744;26;19924;-54
2024/04/16 08:24:26;;;;;;;;;;;;;;;;;;5451365;26;19932;-55
2024/04/16 08:26:52;;;;;;;;;;;;;;;;;;5449636;26;19932;-56
2024/04/16 08:29:18;;;;;;;;;;;;;;;;;;5450158;26;19931;-55
2024/04/16 08:31:44;;;;;;;;;;;;;;;;;;5449931;26;19924;-55
2024/04/16 08:34:10;;;;;;;;;;;;;;;;;;5451182;26;19924;-55
2024/04/16 08:36:36;;;;;;;;;;;;;;;;;;5449388;26;19924;-54
2024/04/16 08:39:02;;;;;;;;;;;;;;;;;;5451096;26;19925;-55
2024/04/16 08:41:28;;;;;;;;;;;;;;;;;;5449394;26;19940;-56
2024/04/16 08:43:53;;;;;;;;;;;;;;;;;;5451044;26;19924;-55
2024/04/16 08:46:19;;;;;;;;;;;;;;;;;;5448271;26;19925;-56
2024/04/16 08:48:45;;;;;;;;;;;;;;;;;;5450815;26;19935;-55
2024/04/16 08:51:11;;;;;;;;;;;;;;;;;;5450788;26;19931;-55
2024/04/16 08:53:37;;;;;;;;;;;;;;;;;;5450554;26;20377;-57
2024/04/16 08:56:03;;;;;;;;;;;;;;;;;;5450472;26;19924;-54
2024/04/16 08:58:29;;;;;;;;;;;;;;;;;;5449981;26;19925;-55
2024/04/16 09:00:56;;;;;;;;;;;;;;;;;;5449256;26;19993;-55
2024/04/16 09:03:22;;;;;;;;;;;;;;;;;;5446861;26;20375;-55
2024/04/16 09:05:48;;;;;;;;;;;;;;;;;;5414594;26;19943;-56
2024/04/16 09:08:14;;;;;;;;;;;;;;;;;;5441126;26;19932;-55
2024/04/16 09:10:43;;;;;;;;;;;;;;;;;;5446194;26;19936;-55
2024/04/16 09:13:09;;;;;;;;;;;;;;;;;;5442205;26;19932;-55
2024/04/16 09:15:37;;;;;;;;;;;;;;;;;;5450503;26;19985;-55
2024/04/16 09:18:03;;;;;;;;;;;;;;;;;;5427619;26;20356;-56
2024/04/16 09:20:29;;;;;;;;;;;;;;;;;;5414731;26;19926;-55
2024/04/16 09:22:55;;;;;;;;;;;;;;;;;;5435937;26;19925;-55
2024/04/16 09:25:21;;;;;;;;;;;;;;;;;;5449335;26;19932;-55
2024/04/16 09:27:47;;;;;;;;;;;;;;;;;;5450069;26;19985;-54
2024/04/16 09:30:13;;;;;;;;;;;;;;;;;;5448170;26;19932;-55
2024/04/16 09:32:39;;;;;;;;;;;;;;;;;;5437007;26;19925;-55
2024/04/16 09:35:05;;;;;;;;;;;;;;;;;;5414115;26;19943;-54
2024/04/16 09:37:31;;;;;;;;;;;;;;;;;;5430060;26;20256;-55
2024/04/16 09:39:57;;;;;;;;;;;;;;;;;;5419805;26;19931;-54
2024/04/16 09:42:23;;;;;;;;;;;;;;;;;;5428334;26;19924;-55
2024/04/16 09:44:49;;;;;;;;;;;;;;;;;;5450171;26;19925;-55
2024/04/16 09:47:15;;;;;;;;;;;;;;;;;;5446347;26;19924;-55
2024/04/16 09:49:41;;;;;;;;;;;;;;;;;;5414388;26;20246;-55
2024/04/16 09:52:07;;;;;;;;;;;;;;;;;;5423776;26;20397;-55
2024/04/16 09:54:33;;;;;;;;;;;;;;;;;;5449847;26;20367;-55
2024/04/16 09:56:59;;;;;;;;;;;;;;;;;;5448495;26;19946;-56
2024/04/16 09:59:25;;;;;;;;;;;;;;;;;;5448745;26;19936;-55
2024/04/16 10:01:51;;;;;;;;;;;;;;;;;;5449561;26;20352;-54
2024/04/16 10:04:17;;;;;;;;;;;;;;;;;;5420152;26;19925;-54
2024/04/16 10:06:43;;;;;;;;;;;;;;;;;;5417375;26;19990;-53
2024/04/16 10:09:09;;;;;;;;;;;;;;;;;;5420674;26;19936;-56
2024/04/16 10:11:35;;;;;;;;;;;;;;;;;;5447183;26;19924;-56
2024/04/16 10:14:01;;;;;;;;;;;;;;;;;;5449843;26;20288;-57
2024/04/16 10:16:27;;;;;;;;;;;;;;;;;;5417972;26;19925;-56
2024/04/16 10:18:53;;;;;;;;;;;;;;;;;;5429117;26;20233;-57
2024/04/16 10:21:19;;;;;;;;;;;;;;;;;;5413432;26;20352;-56
2024/04/16 10:23:46;;;;;;;;;;;;;;;;;;5447688;26;19924;-56
2024/04/16 10:26:14;;;;;;;;;;;;;;;;;;5448758;26;19932;-56
2024/04/16 10:28:42;;;;;;;;;;;;;;;;;;5448744;26;20450;-55
2024/04/16 10:31:11;;;;;;;;;;;;;;;;;;5449186;26;20443;-54
2024/04/16 10:33:37;;;;;;;;;;;;;;;;;;5427633;26;20426;-55
2024/04/16 10:36:03;;;;;;;;;;;;;;;;;;5449105;26;19924;-55
2024/04/16 10:38:29;;;;;;;;;;;;;;;;;;5442010;26;20006;-55
2024/04/16 10:40:55;;;;;;;;;;;;;;;;;;5413949;26;20249;-55
2024/04/16 10:43:21;;;;;;;;;;;;;;;;;;5441133;26;19924;-53
2024/04/16 10:45:47;;;;;;;;;;;;;;;;;;5449074;26;19932;-54
2024/04/16 10:48:13;;;;;;;;;;;;;;;;;;5423010;26;19925;-53
2024/04/16 10:50:38;;;;;;;;;;;;;;;;;;5413123;26;19932;-57
2024/04/16 10:53:04;;;;;;;;;;;;;;;;;;5437672;26;19924;-56
2024/04/16 10:55:32;;;;;;;;;;;;;;;;;;5437993;26;20283;-55
2024/04/16 10:57:58;;;;;;;;;;;;;;;;;;5435467;26;20412;-54
2024/04/16 11:00:24;;;;;;;;;;;;;;;;;;5448840;26;20300;-54
2024/04/16 11:02:50;;;;;;;;;;;;;;;;;;5447389;26;19993;-55
2024/04/16 11:05:19;;;;;;;;;;;;;;;;;;5448854;26;20353;-55
2024/04/16 11:07:45;;;;;;;;;;;;;;;;;;5448391;26;19924;-55
2024/04/16 11:10:11;;;;;;;;;;;;;;;;;;5447501;26;20408;-55
2024/04/16 11:12:37;;;;;;;;;;;;;;;;;;5448348;26;19932;-56
2024/04/16 11:15:03;;;;;;;;;;;;;;;;;;5448478;26;19925;-54
2024/04/16 11:17:29;;;;;;;;;;;;;;;;;;5446334;26;20433;-54
2024/04/16 11:19:55;;;;;;;;;;;;;;;;;;5448436;26;19924;-55
2024/04/16 11:22:21;;;;;;;;;;;;;;;;;;5448230;26;20022;-53
2024/04/16 11:24:47;;;;;;;;;;;;;;;;;;5447453;26;20367;-54
2024/04/16 11:27:13;;;;;;;;;;;;;;;;;;5436918;26;19925;-54
2024/04/16 11:29:39;;;;;;;;;;;;;;;;;;5432382;26;19996;-58
2024/04/16 11:32:04;;;;;;;;;;;;;;;;;;5448549;26;20374;-55
2024/04/16 11:34:30;;;;;;;;;;;;;;;;;;5447664;26;19932;-55
2024/04/16 11:36:56;;;;;;;;;;;;;;;;;;5447873;26;19932;-54
2024/04/16 11:39:25;;;;;;;;;;;;;;;;;;5449081;26;19924;-56
2024/04/16 11:41:51;;;;;;;;;;;;;;;;;;5446505;26;19925;-57
2024/04/16 11:44:17;;;;;;;;;;;;;;;;;;5448633;26;19986;-54
2024/04/16 11:46:43;;;;;;;;;;;;;;;;;;5444954;26;20309;-56
2024/04/16 11:49:09;;;;;;;;;;;;;;;;;;5440733;26;20002;-55
2024/04/16 11:51:34;;;;;;;;;;;;;;;;;;5437677;26;19933;-54
2024/04/16 11:54:02;;;;;;;;;;;;;;;;;;5439016;26;20244;-56
2024/04/16 11:56:28;;;;;;;;;;;;;;;;;;5413520;26;19935;-57
2024/04/16 11:58:54;;;;;;;;;;;;;;;;;;5451249;26;19924;-55
2024/04/16 12:01:20;;;;;;;;;;;;;;;;;;5448629;26;19925;-56
2024/04/16 12:03:46;;;;;;;;;;;;;;;;;;5449252;26;19935;-55
2024/04/16 12:06:12;;;;;;;;;;;;;;;;;;5424229;26;19924;-55
2024/04/16 12:08:38;;;;;;;;;;;;;;;;;;5451502;26;20260;-55
2024/04/16 12:11:04;;;;;;;;;;;;;;;;;;5450156;26;19924;-57
2024/04/16 12:13:30;;;;;;;;;;;;;;;;;;5449150;26;19931;-55
2024/04/16 12:15:56;;;;;;;;;;;;;;;;;;5423955;26;19925;-55
2024/04/16 12:18:22;;;;;;;;;;;;;;;;;;5420591;26;19932;-55
2024/04/16 12:20:48;;;;;;;;;;;;;;;;;;5415304;26;19994;-55
2024/04/16 12:23:13;;;;;;;;;;;;;;;;;;5441917;26;19989;-54
2024/04/16 12:25:39;;;;;;;;;;;;;;;;;;5449958;26;20282;-55
2024/04/16 12:28:05;;;;;;;;;;;;;;;;;;5433534;26;20648;-55
2024/04/16 12:30:31;;;;;;;;;;;;;;;;;;5413967;26;19933;-55
2024/04/16 12:32:57;;;;;;;;;;;;;;;;;;5427693;26;19925;-55
2024/04/16 12:35:23;;;;;;;;;;;;;;;;;;5414684;26;19932;-56
2024/04/16 12:37:49;;;;;;;;;;;;;;;;;;5423267;26;19925;-55
2024/04/16 12:40:16;;;;;;;;;;;;;;;;;;5426460;26;19997;-54
2024/04/16 12:42:45;;;;;;;;;;;;;;;;;;5432187;26;19933;-54
2024/04/16 12:45:11;;;;;;;;;;;;;;;;;;5433450;26;19924;-56
2024/04/16 12:47:37;;;;;;;;;;;;;;;;;;5434122;26;19932;-55
2024/04/16 12:50:03;;;;;;;;;;;;;;;;;;5421016;26;19972;-55
2024/04/16 12:52:29;;;;;;;;;;;;;;;;;;5431406;26;19925;-58
2024/04/16 12:54:55;;;;;;;;;;;;;;;;;;5419257;26;20408;-55
2024/04/16 12:57:21;;;;;;;;;;;;;;;;;;5426611;26;19931;-56
2024/04/16 12:59:51;;;;;;;;;;;;;;;;;;5444167;26;19931;-59
2024/04/16 13:02:17;;;;;;;;;;;;;;;;;;5442849;26;19924;-58
2024/04/16 13:04:43;;;;;;;;;;;;;;;;;;5445038;26;19924;-59
2024/04/16 13:07:09;;;;;;;;;;;;;;;;;;5429733;26;20017;-57
2024/04/16 13:09:35;;;;;;;;;;;;;;;;;;5435774;26;20414;-60
2024/04/16 13:12:01;;;;;;;;;;;;;;;;;;5417206;26;19941;-60
2024/04/16 13:14:27;;;;;;;;;;;;;;;;;;5433632;26;19924;-60
2024/04/16 13:16:53;;;;;;;;;;;;;;;;;;5433920;26;20341;-59
2024/04/16 13:19:19;;;;;;;;;;;;;;;;;;5445008;26;19931;-59
2024/04/16 13:21:45;;;;;;;;;;;;;;;;;;5425354;26;19932;-59
2024/04/16 13:24:12;;;;;;;;;;;;;;;;;;5413058;26;20014;-59
2024/04/16 13:26:38;;;;;;;;;;;;;;;;;;5430812;26;19925;-58
2024/04/16 13:29:04;;;;;;;;;;;;;;;;;;5433549;26;19936;-58
2024/04/16 13:31:30;;;;;;;;;;;;;;;;;;5422591;26;20376;-58
2024/04/16 13:33:57;;;;;;;;;;;;;;;;;;5415650;26;19925;-57
2024/04/16 13:36:22;;;;;;;;;;;;;;;;;;5428892;26;20360;-57
2024/04/16 13:38:48;;;;;;;;;;;;;;;;;;5426523;26;19925;-57
2024/04/16 13:41:14;;;;;;;;;;;;;;;;;;5429485;26;19997;-58
2024/04/16 13:43:40;;;;;;;;;;;;;;;;;;5421963;26;20229;-58
2024/04/16 13:46:06;;;;;;;;;;;;;;;;;;5420497;26;19931;-57
2024/04/16 13:48:32;;;;;;;;;;;;;;;;;;5442803;26;19924;-57
2024/04/16 13:50:58;;;;;;;;;;;;;;;;;;5415267;26;19932;-57
2024/04/16 13:53:24;;;;;;;;;;;;;;;;;;5423859;26;19933;-57
2024/04/16 13:55:50;;;;;;;;;;;;;;;;;;5415391;26;19932;-57
2024/04/16 13:58:16;;;;;;;;;;;;;;;;;;5438334;26;19933;-57
2024/04/16 14:00:42;;;;;;;;;;;;;;;;;;5413402;26;19933;-57
2024/04/16 14:03:08;;;;;;;;;;;;;;;;;;5420279;26;19924;-57
2024/04/16 14:05:34;;;;;;;;;;;;;;;;;;5414013;26;19925;-56
2024/04/16 14:08:00;;;;;;;;;;;;;;;;;;5431265;26;20328;-56
2024/04/16 14:10:26;;;;;;;;;;;;;;;;;;5423373;26;19994;-58
2024/04/16 14:12:52;;;;;;;;;;;;;;;;;;5430875;26;20268;-58
2024/04/16 14:15:18;;;;;;;;;;;;;;;;;;5424226;26;19924;-58
2024/04/16 14:17:44;;;;;;;;;;;;;;;;;;5422579;26;20341;-58
2024/04/16 14:20:10;;;;;;;;;;;;;;;;;;5413201;26;20348;-58
2024/04/16 14:22:36;;;;;;;;;;;;;;;;;;5421153;26;20008;-58
2024/04/16 14:25:02;;;;;;;;;;;;;;;;;;5412716;26;19924;-58
2024/04/16 14:27:28;;;;;;;;;;;;;;;;;;5421000;26;19937;-58
2024/04/16 14:29:54;;;;;;;;;;;;;;;;;;5425777;26;19924;-58
2024/04/16 14:32:20;;;;;;;;;;;;;;;;;;5415640;26;19936;-58
2024/04/16 14:34:46;;;;;;;;;;;;;;;;;;5414991;26;19993;-58
2024/04/16 14:37:12;;;;;;;;;;;;;;;;;;5427904;26;20276;-58
2024/04/16 14:39:38;;;;;;;;;;;;;;;;;;5414093;26;20348;-58
2024/04/16 14:42:04;;;;;;;;;;;;;;;;;;5417096;26;19924;-58
2024/04/16 14:44:30;;;;;;;;;;;;;;;;;;5426259;26;19925;-58
2024/04/16 14:46:58;;;;;;;;;;;;;;;;;;5428475;26;19932;-58
2024/04/16 14:49:24;;;;;;;;;;;;;;;;;;5424675;26;19932;-58
2024/04/16 14:51:50;;;;;;;;;;;;;;;;;;5426098;26;19939;-58
2024/04/16 14:54:16;;;;;;;;;;;;;;;;;;5438319;26;20349;-58
2024/04/16 14:56:42;;;;;;;;;;;;;;;;;;5426203;26;19925;-58
2024/04/16 14:59:08;;;;;;;;;;;;;;;;;;5428728;26;19952;-59
2024/04/16 15:01:33;;;;;;;;;;;;;;;;;;5415204;26;19932;-59
2024/04/16 15:03:59;;;;;;;;;;;;;;;;;;5422783;26;19936;-59
2024/04/16 15:06:25;;;;;;;;;;;;;;;;;;5415461;26;20369;-59
2024/04/16 15:08:51;;;;;;;;;;;;;;;;;;5437844;26;19928;-56
2024/04/16 15:11:17;;;;;;;;;;;;;;;;;;5433349;26;19929;-57
2024/04/16 15:13:43;;;;;;;;;;;;;;;;;;5420642;26;20364;-57
2024/04/16 15:16:09;;;;;;;;;;;;;;;;;;5420625;26;20568;-57
2024/04/16 15:18:35;;;;;;;;;;;;;;;;;;5435035;26;20488;-57
2024/04/16 15:21:01;;;;;;;;;;;;;;;;;;5423063;26;19933;-58
2024/04/16 15:23:28;;;;;;;;;;;;;;;;;;5442229;26;19932;-57
2024/04/16 15:25:54;;;;;;;;;;;;;;;;;;5428022;26;19925;-58
2024/04/16 15:28:20;;;;;;;;;;;;;;;;;;5426065;26;19924;-58
2024/04/16 15:30:46;;;;;;;;;;;;;;;;;;5441553;26;19931;-58
2024/04/16 15:33:12;;;;;;;;;;;;;;;;;;5440461;26;19945;-58
2024/04/16 15:35:38;;;;;;;;;;;;;;;;;;5423714;26;20267;-59
2024/04/16 15:38:04;;;;;;;;;;;;;;;;;;5437652;26;19937;-58
2024/04/16 15:40:30;;;;;;;;;;;;;;;;;;5418122;26;19995;-58
2024/04/16 15:42:56;;;;;;;;;;;;;;;;;;5432589;26;19924;-58
2024/04/16 15:45:22;;;;;;;;;;;;;;;;;;5426804;26;19932;-58
2024/04/16 15:47:47;;;;;;;;;;;;;;;;;;5436325;26;20244;-58
2024/04/16 15:50:13;;;;;;;;;;;;;;;;;;5428998;26;20665;-58
2024/04/16 15:52:39;;;;;;;;;;;;;;;;;;5426167;26;20337;-58
2024/04/16 15:55:05;;;;;;;;;;;;;;;;;;5430345;26;19953;-58
2024/04/16 15:57:32;;;;;;;;;;;;;;;;;;5424594;26;20260;-58
2024/04/16 15:59:58;;;;;;;;;;;;;;;;;;5422377;26;20357;-59
2024/04/16 16:02:24;;;;;;;;;;;;;;;;;;5444098;26;19994;-58
2024/04/16 16:04:49;;;;;;;;;;;;;;;;;;5431939;26;20261;-58
2024/04/16 16:07:15;;;;;;;;;;;;;;;;;;5417432;26;19940;-58
2024/04/16 16:09:42;;;;;;;;;;;;;;;;;;5411263;26;19925;-58
2024/04/16 16:12:08;;;;;;;;;;;;;;;;;;5429678;26;19924;-58
2024/04/16 16:14:34;;;;;;;;;;;;;;;;;;5422525;26;19933;-58
2024/04/16 16:17:00;;;;;;;;;;;;;;;;;;5433522;26;19930;-58
2024/04/16 16:19:26;;;;;;;;;;;;;;;;;;5415719;26;19925;-56
2024/04/16 16:21:52;;;;;;;;;;;;;;;;;;5417485;26;20290;-57
2024/04/16 16:24:18;;;;;;;;;;;;;;;;;;5415392;26;20345;-57
2024/04/16 16:26:44;;;;;;;;;;;;;;;;;;5432884;26;19925;-57
2024/04/16 16:29:10;;;;;;;;;;;;;;;;;;5417109;26;19932;-56
2024/04/16 16:31:37;;;;;;;;;;;;;;;;;;5431781;26;20550;-57
2024/04/16 16:34:08;;;;;;;;;;;;;;;;;;5428737;26;20425;-57
2024/04/16 16:36:34;;;;;;;;;;;;;;;;;;5417850;26;19982;-57